Time;durP1;ratioP1;P1;durP2;ratioP2;P2;SDS_P1;SDS_P2;PMS_P1;PMS_P2;Temp;Humidity;BMP_temperature;BMP_pressure;BME280_temperature;BME280_humidity;BME280_pressure;Samples;Min_cycle;Max_cycle;Signal;HPM_P1;HPM_P2
2023/08/10 00:02:14;;;;;;;8.68;5.78;;;;;;;;;;5015780;28;20026;-79
2023/08/10 00:04:40;;;;;;;9.35;5.47;;;;;;;;;;5023882;28;20495;-79
2023/08/10 00:07:05;;;;;;;8.90;5.82;;;;;;;;;;5019086;28;20037;-78
2023/08/10 00:09:31;;;;;;;7.45;5.95;;;;;;;;;;5019914;28;20042;-78
2023/08/10 00:11:56;;;;;;;10.23;5.90;;;;;;;;;;5012490;28;20033;-78
2023/08/10 00:14:22;;;;;;;10.25;6.88;;;;;;;;;;5023793;28;20050;-78
2023/08/10 00:16:47;;;;;;;8.38;6.05;;;;;;;;;;5028969;28;20049;-78
2023/08/10 00:19:12;;;;;;;7.55;6.00;;;;;;;;;;5006468;28;20519;-78
2023/08/10 00:21:38;;;;;;;8.30;6.18;;;;;;;;;;5014435;28;20065;-78
2023/08/10 00:24:03;;;;;;;8.40;6.20;;;;;;;;;;5011668;28;20021;-78
2023/08/10 00:26:29;;;;;;;7.00;5.78;;;;;;;;;;5015370;28;20025;-78
2023/08/10 00:28:54;;;;;;;8.20;5.80;;;;;;;;;;5026199;28;20040;-78
2023/08/10 00:31:19;;;;;;;8.82;5.85;;;;;;;;;;5014012;28;20033;-78
2023/08/10 00:33:44;;;;;;;8.30;5.10;;;;;;;;;;5007935;28;20061;-78
2023/08/10 00:36:11;;;;;;;7.78;5.78;;;;;;;;;;5016595;28;20036;-79
2023/08/10 00:38:40;;;;;;;5.97;5.32;;;;;;;;;;5016494;28;20395;-79
2023/08/10 00:41:06;;;;;;;8.38;5.38;;;;;;;;;;5025469;28;20095;-78
2023/08/10 00:43:31;;;;;;;7.90;6.00;;;;;;;;;;5020110;28;20030;-78
2023/08/10 00:45:58;;;;;;;7.50;5.80;;;;;;;;;;5013312;28;20258;-78
2023/08/10 00:48:24;;;;;;;5.72;4.60;;;;;;;;;;5029015;28;20044;-79
2023/08/10 00:50:52;;;;;;;8.77;5.25;;;;;;;;;;5019214;28;20036;-79
2023/08/10 00:53:18;;;;;;;8.98;5.70;;;;;;;;;;5023377;28;20041;-79
2023/08/10 00:55:45;;;;;;;8.07;5.43;;;;;;;;;;4999692;28;20038;-79
2023/08/10 00:58:13;;;;;;;6.38;5.10;;;;;;;;;;5013108;28;20034;-78
2023/08/10 01:00:39;;;;;;;7.65;5.30;;;;;;;;;;5017383;28;20046;-79
2023/08/10 01:03:05;;;;;;;6.10;4.88;;;;;;;;;;5017982;28;20025;-78
2023/08/10 01:05:37;;;;;;;8.45;5.45;;;;;;;;;;5000892;28;20068;-78
2023/08/10 01:08:16;;;;;;;5.90;5.30;;;;;;;;;;5021786;28;20394;-78
2023/08/10 01:10:58;;;;;;;6.45;5.18;;;;;;;;;;5012675;28;20057;-79
2023/08/10 01:13:28;;;;;;;8.18;5.80;;;;;;;;;;5020473;28;20030;-78
2023/08/10 01:16:03;;;;;;;7.35;5.10;;;;;;;;;;5014884;28;20042;-78
2023/08/10 01:18:28;;;;;;;;;;;;;;;;;;5021366;28;20034;-79
2023/08/10 01:20:59;;;;;;;8.07;5.32;;;;;;;;;;4998717;28;20004;-79
2023/08/10 01:23:35;;;;;;;10.18;5.53;;;;;;;;;;5022352;28;20044;-79
2023/08/10 01:26:01;;;;;;;8.90;5.78;;;;;;;;;;5008278;28;20111;-79
2023/08/10 01:28:27;;;;;;;7.18;5.18;;;;;;;;;;5017347;28;20072;-79
2023/08/10 01:30:53;;;;;;;7.10;5.82;;;;;;;;;;5011101;28;20033;-79
2023/08/10 01:33:19;;;;;;;8.57;5.93;;;;;;;;;;5023630;28;20055;-79
2023/08/10 01:35:44;;;;;;;7.47;6.35;;;;;;;;;;5007980;28;20026;-80
2023/08/10 01:38:10;;;;;;;10.25;6.40;;;;;;;;;;5025056;28;20530;-79
2023/08/10 01:40:36;;;;;;;8.00;6.13;;;;;;;;;;5024930;28;20100;-79
2023/08/10 01:43:02;;;;;;;10.15;6.50;;;;;;;;;;4997446;28;20045;-79
2023/08/10 01:45:28;;;;;;;10.40;7.10;;;;;;;;;;5005818;28;20089;-80
2023/08/10 01:48:11;;;;;;;7.47;6.10;;;;;;;;;;5020140;28;20056;-79
2023/08/10 01:50:40;;;;;;;8.57;6.72;;;;;;;;;;5025126;28;20045;-79
2023/08/10 01:53:11;;;;;;;10.43;6.57;;;;;;;;;;5021305;28;20041;-80
2023/08/10 01:55:37;;;;;;;11.55;7.90;;;;;;;;;;5029461;28;20041;-78
2023/08/10 01:58:03;;;;;;;9.48;7.72;;;;;;;;;;5014734;28;20058;-79
2023/08/10 02:00:28;;;;;;;12.65;8.20;;;;;;;;;;5007103;28;20034;-79
2023/08/10 02:02:54;;;;;;;9.45;6.22;;;;;;;;;;5021066;28;20562;-79
2023/08/10 02:05:19;;;;;;;6.63;5.60;;;;;;;;;;5032485;28;20026;-78
2023/08/10 02:07:48;;;;;;;4.70;4.10;;;;;;;;;;5025762;28;20038;-79
2023/08/10 02:10:14;;;;;;;3.97;3.33;;;;;;;;;;5026134;28;20346;-80
2023/08/10 02:12:39;;;;;;;3.00;2.80;;;;;;;;;;5021890;28;20061;-80
2023/08/10 02:15:05;;;;;;;3.00;2.80;;;;;;;;;;5018600;28;20080;-79
2023/08/10 02:17:35;;;;;;;4.32;3.10;;;;;;;;;;5003375;28;20037;-80
2023/08/10 02:20:04;;;;;;;4.43;2.92;;;;;;;;;;5024026;28;20041;-79
2023/08/10 02:22:30;;;;;;;2.80;2.58;;;;;;;;;;5014233;28;20045;-80
2023/08/10 02:24:55;;;;;;;4.25;2.70;;;;;;;;;;5026488;28;20033;-80
2023/08/10 02:27:20;;;;;;;3.45;2.67;;;;;;;;;;5017923;28;20041;-80
2023/08/10 02:29:45;;;;;;;3.15;2.85;;;;;;;;;;5023225;28;20030;-80
2023/08/10 02:32:11;;;;;;;4.97;3.63;;;;;;;;;;5006442;28;20408;-79
2023/08/10 02:34:36;;;;;;;3.50;3.00;;;;;;;;;;5018311;28;20030;-79
2023/08/10 02:37:02;;;;;;;4.00;3.42;;;;;;;;;;5013078;28;20083;-79
2023/08/10 02:39:27;;;;;;;3.60;2.90;;;;;;;;;;5022849;28;20049;-79
2023/08/10 02:41:52;;;;;;;4.80;3.50;;;;;;;;;;5005690;28;20013;-79
2023/08/10 02:44:19;;;;;;;3.80;3.50;;;;;;;;;;5031655;28;20105;-79
2023/08/10 02:46:44;;;;;;;3.67;3.38;;;;;;;;;;5017471;28;20113;-79
2023/08/10 02:49:10;;;;;;;3.90;3.50;;;;;;;;;;5006894;28;20100;-79
2023/08/10 02:51:35;;;;;;;4.20;3.78;;;;;;;;;;5014687;28;20041;-79
2023/08/10 02:54:00;;;;;;;4.78;3.92;;;;;;;;;;5015634;28;20041;-79
2023/08/10 02:56:26;;;;;;;4.30;3.90;;;;;;;;;;5018491;28;20056;-79
2023/08/10 02:58:51;;;;;;;4.70;4.30;;;;;;;;;;5018472;28;20403;-79
2023/08/10 03:01:16;;;;;;;6.13;4.88;;;;;;;;;;5020453;28;20081;-79
2023/08/10 03:03:42;;;;;;;11.57;6.18;;;;;;;;;;5033123;28;20064;-79
2023/08/10 03:06:07;;;;;;;6.22;4.93;;;;;;;;;;5026714;28;20017;-79
2023/08/10 03:08:32;;;;;;;6.18;4.70;;;;;;;;;;5021126;28;20021;-79
2023/08/10 03:10:58;;;;;;;7.22;4.50;;;;;;;;;;5022194;28;20038;-79
2023/08/10 03:13:23;;;;;;;5.05;4.45;;;;;;;;;;5026451;28;20052;-78
2023/08/10 03:15:48;;;;;;;5.68;4.22;;;;;;;;;;5025394;28;20510;-79
2023/08/10 03:18:14;;;;;;;4.80;3.63;;;;;;;;;;5016566;28;20112;-79
2023/08/10 03:20:39;;;;;;;4.15;3.75;;;;;;;;;;5005741;28;20052;-79
2023/08/10 03:23:04;;;;;;;3.70;3.35;;;;;;;;;;5031051;28;20072;-79
2023/08/10 03:25:29;;;;;;;5.60;3.35;;;;;;;;;;5027077;28;20029;-79
2023/08/10 03:27:55;;;;;;;4.70;3.55;;;;;;;;;;5034705;22;20057;-82
2023/08/10 03:30:20;;;;;;;3.75;3.08;;;;;;;;;;5016510;28;20026;-81
2023/08/10 03:32:45;;;;;;;4.32;3.53;;;;;;;;;;5018318;28;20483;-81
2023/08/10 03:35:11;;;;;;;4.05;3.70;;;;;;;;;;5018215;28;20026;-80
2023/08/10 03:37:36;;;;;;;4.57;3.63;;;;;;;;;;5017797;28;20045;-79
2023/08/10 03:40:02;;;;;;;3.72;3.40;;;;;;;;;;5017362;28;20542;-80
2023/08/10 03:42:27;;;;;;;7.03;3.95;;;;;;;;;;5017928;28;20057;-80
2023/08/10 03:44:55;;;;;;;3.97;3.65;;;;;;;;;;5016128;28;20022;-78
2023/08/10 03:47:20;;;;;;;4.10;3.67;;;;;;;;;;5000141;28;20045;-83
2023/08/10 03:49:46;;;;;;;7.00;3.60;;;;;;;;;;5016716;28;20065;-82
2023/08/10 03:52:11;;;;;;;4.03;3.70;;;;;;;;;;5014229;28;20068;-83
2023/08/10 03:54:36;;;;;;;4.10;3.70;;;;;;;;;;5017978;28;20042;-83
2023/08/10 03:57:03;;;;;;;4.32;3.70;;;;;;;;;;5023411;28;20077;-82
2023/08/10 03:59:28;;;;;;;4.40;4.00;;;;;;;;;;5025618;28;20037;-83
2023/08/10 04:01:54;;;;;;;5.32;4.30;;;;;;;;;;5022047;28;20034;-82
2023/08/10 04:04:19;;;;;;;4.65;4.18;;;;;;;;;;5003561;28;20109;-80
2023/08/10 04:06:44;;;;;;;4.50;4.10;;;;;;;;;;5016658;28;20426;-81
2023/08/10 04:09:10;;;;;;;5.25;4.45;;;;;;;;;;5014838;28;20025;-79
2023/08/10 04:11:36;;;;;;;5.47;3.90;;;;;;;;;;5000469;28;20033;-80
2023/08/10 04:14:01;;;;;;;4.32;3.92;;;;;;;;;;5020070;28;20032;-83
2023/08/10 04:16:26;;;;;;;5.60;3.90;;;;;;;;;;5022543;28;20034;-83
2023/08/10 04:18:52;;;;;;;4.60;3.90;;;;;;;;;;5004620;28;20065;-83
2023/08/10 04:21:17;;;;;;;4.70;4.20;;;;;;;;;;5004070;28;20038;-82
2023/08/10 04:23:42;;;;;;;4.85;4.35;;;;;;;;;;5005214;28;20018;-84
2023/08/10 04:26:08;;;;;;;5.78;3.92;;;;;;;;;;5021925;28;20034;-83
2023/08/10 04:28:34;;;;;;;4.45;4.05;;;;;;;;;;5021516;28;20045;-83
2023/08/10 04:30:59;;;;;;;4.20;3.80;;;;;;;;;;5005603;28;20040;-82
2023/08/10 04:33:25;;;;;;;4.60;3.85;;;;;;;;;;5021221;28;20514;-81
2023/08/10 04:35:51;;;;;;;4.30;3.72;;;;;;;;;;5022447;28;20029;-82
2023/08/10 04:38:16;;;;;;;4.68;3.78;;;;;;;;;;5022174;28;20097;-83
2023/08/10 04:40:41;;;;;;;6.93;5.13;;;;;;;;;;5020234;28;20030;-84
2023/08/10 04:43:07;;;;;;;8.90;7.07;;;;;;;;;;5016552;28;20034;-80
2023/08/10 04:45:32;;;;;;;5.65;4.35;;;;;;;;;;5000767;28;20033;-83
2023/08/10 04:47:58;;;;;;;3.65;3.35;;;;;;;;;;5018628;28;20022;-83
2023/08/10 04:50:23;;;;;;;3.78;3.30;;;;;;;;;;5018393;28;20103;-84
2023/08/10 04:52:49;;;;;;;4.30;3.50;;;;;;;;;;5015727;28;20061;-83
2023/08/10 04:55:15;;;;;;;4.47;3.15;;;;;;;;;;5016923;28;20037;-83
2023/08/10 04:57:40;;;;;;;3.53;2.72;;;;;;;;;;5019070;28;20030;-82
2023/08/10 05:00:09;;;;;;;3.47;3.10;;;;;;;;;;5017093;28;20034;-85
2023/08/10 05:02:35;;;;;;;3.63;3.33;;;;;;;;;;5018352;28;20498;-84
2023/08/10 05:05:01;;;;;;;5.55;3.10;;;;;;;;;;5016776;28;20038;-82
2023/08/10 05:07:27;;;;;;;3.17;2.88;;;;;;;;;;4997854;28;20044;-84
2023/08/10 05:09:52;;;;;;;3.13;2.80;;;;;;;;;;5014354;28;20057;-83
2023/08/10 05:12:18;;;;;;;2.85;2.65;;;;;;;;;;5017129;28;20045;-83
2023/08/10 05:14:43;;;;;;;4.82;2.55;;;;;;;;;;5015987;28;20387;-80
2023/08/10 05:17:10;;;;;;;2.80;2.60;;;;;;;;;;5016184;28;20033;-81
2023/08/10 05:19:35;;;;;;;4.22;2.15;;;;;;;;;;5017045;28;20496;-85
2023/08/10 05:22:01;;;;;;;8.82;2.50;;;;;;;;;;4999194;28;20088;-84
2023/08/10 05:24:26;;;;;;;2.40;2.20;;;;;;;;;;5015793;28;20038;-83
2023/08/10 05:26:52;;;;;;;2.97;2.17;;;;;;;;;;5015254;28;20053;-82
2023/08/10 05:29:17;;;;;;;2.53;2.33;;;;;;;;;;5009316;28;20118;-84
2023/08/10 05:31:42;;;;;;;2.70;2.40;;;;;;;;;;4996207;28;20034;-83
2023/08/10 05:34:07;;;;;;;2.67;2.47;;;;;;;;;;5014815;28;20084;-83
2023/08/10 05:36:33;;;;;;;2.78;2.00;;;;;;;;;;5016347;28;20121;-83
2023/08/10 05:38:58;;;;;;;3.10;2.45;;;;;;;;;;5014938;28;20029;-83
2023/08/10 05:41:23;;;;;;;2.20;2.08;;;;;;;;;;4994865;28;20129;-83
2023/08/10 05:43:49;;;;;;;3.65;2.00;;;;;;;;;;5010961;28;20042;-84
2023/08/10 05:46:15;;;;;;;2.30;2.10;;;;;;;;;;5013653;28;20049;-82
2023/08/10 05:48:40;;;;;;;2.20;2.00;;;;;;;;;;5014538;28;20034;-84
2023/08/10 05:51:05;;;;;;;3.15;2.22;;;;;;;;;;5015067;28;20105;-84
2023/08/10 05:53:31;;;;;;;2.13;1.92;;;;;;;;;;5016178;28;20028;-83
2023/08/10 05:55:56;;;;;;;3.70;1.92;;;;;;;;;;5001878;28;20030;-83
2023/08/10 05:58:21;;;;;;;3.75;2.20;;;;;;;;;;5015624;28;20188;-83
2023/08/10 06:00:47;;;;;;;2.83;2.00;;;;;;;;;;5014962;28;20192;-81
2023/08/10 06:03:12;;;;;;;2.38;1.85;;;;;;;;;;5015218;28;20029;-80
2023/08/10 06:05:38;;;;;;;2.50;2.10;;;;;;;;;;5016831;28;20021;-79
2023/08/10 06:08:06;;;;;;;2.30;2.10;;;;;;;;;;5017130;28;20057;-77
2023/08/10 06:10:32;;;;;;;7.53;1.80;;;;;;;;;;5017322;28;20064;-79
2023/08/10 06:12:57;;;;;;;2.08;1.90;;;;;;;;;;5017281;28;20030;-80
2023/08/10 06:15:24;;;;;;;4.88;2.15;;;;;;;;;;5020122;28;20048;-78
2023/08/10 06:17:49;;;;;;;2.15;1.95;;;;;;;;;;5020525;28;20029;-78
2023/08/10 06:20:17;;;;;;;8.02;2.17;;;;;;;;;;5000668;28;20500;-80
2023/08/10 06:22:43;;;;;;;2.28;2.13;;;;;;;;;;5016722;28;20022;-80
2023/08/10 06:25:10;;;;;;;2.35;2.20;;;;;;;;;;5017805;28;20033;-77
2023/08/10 06:27:35;;;;;;;5.03;2.20;;;;;;;;;;5020776;28;20116;-78
2023/08/10 06:30:02;;;;;;;3.08;2.40;;;;;;;;;;5023246;28;20022;-82
2023/08/10 06:32:27;;;;;;;4.65;2.63;;;;;;;;;;5021242;28;20041;-83
2023/08/10 06:34:56;;;;;;;3.15;2.60;;;;;;;;;;5019901;28;20609;-79
2023/08/10 06:37:21;;;;;;;2.85;2.22;;;;;;;;;;5021355;28;20034;-83
2023/08/10 06:39:48;;;;;;;3.70;2.30;;;;;;;;;;5018872;28;20022;-83
2023/08/10 06:42:13;;;;;;;2.58;2.33;;;;;;;;;;5018046;28;20080;-83
2023/08/10 06:44:39;;;;;;;2.95;2.50;;;;;;;;;;5016262;28;20033;-81
2023/08/10 06:47:04;;;;;;;2.03;1.92;;;;;;;;;;5019326;28;20038;-83
2023/08/10 06:49:29;;;;;;;4.35;2.08;;;;;;;;;;5014545;28;20037;-82
2023/08/10 06:51:55;;;;;;;5.30;2.40;;;;;;;;;;5015361;28;20038;-83
2023/08/10 06:54:20;;;;;;;2.40;2.00;;;;;;;;;;5016016;28;20022;-82
2023/08/10 06:56:46;;;;;;;2.40;2.20;;;;;;;;;;5015725;28;20034;-81
2023/08/10 06:59:12;;;;;;;2.47;2.28;;;;;;;;;;5018312;28;20042;-83
2023/08/10 07:01:38;;;;;;;2.35;2.10;;;;;;;;;;5002527;28;20330;-83
2023/08/10 07:04:04;;;;;;;2.45;2.25;;;;;;;;;;5001145;28;20289;-83
2023/08/10 07:06:30;;;;;;;7.75;2.72;;;;;;;;;;5017949;28;20042;-81
2023/08/10 07:08:55;;;;;;;2.55;2.33;;;;;;;;;;5016368;28;20026;-81
2023/08/10 07:11:21;;;;;;;2.38;2.17;;;;;;;;;;5017537;28;20034;-82
2023/08/10 07:13:46;;;;;;;2.17;2.08;;;;;;;;;;5016902;28;20052;-81
2023/08/10 07:16:12;;;;;;;2.10;1.98;;;;;;;;;;5014528;28;20030;-81
2023/08/10 07:18:38;;;;;;;2.13;2.03;;;;;;;;;;5017169;28;20055;-83
2023/08/10 07:21:04;;;;;;;2.22;2.13;;;;;;;;;;5015517;28;20033;-83
2023/08/10 07:23:30;;;;;;;2.65;2.38;;;;;;;;;;5016617;28;20040;-80
2023/08/10 07:25:55;;;;;;;2.28;2.10;;;;;;;;;;5017374;28;20937;-80
2023/08/10 07:28:23;;;;;;;1.90;1.80;;;;;;;;;;5018149;28;20153;-83
2023/08/10 07:30:50;;;;;;;2.65;2.10;;;;;;;;;;5016657;28;20034;-81
2023/08/10 07:33:15;;;;;;;2.00;1.85;;;;;;;;;;5017565;28;20034;-83
2023/08/10 07:35:40;;;;;;;2.70;1.83;;;;;;;;;;5017665;28;20111;-84
2023/08/10 07:38:05;;;;;;;4.82;2.08;;;;;;;;;;5017757;28;20030;-83
2023/08/10 07:40:31;;;;;;;1.80;1.70;;;;;;;;;;5017282;28;20308;-83
2023/08/10 07:42:56;;;;;;;2.58;1.83;;;;;;;;;;5017709;28;20078;-84
2023/08/10 07:45:22;;;;;;;2.15;1.77;;;;;;;;;;5017270;28;20049;-81
2023/08/10 07:47:47;;;;;;;1.67;1.58;;;;;;;;;;5019844;28;20028;-81
2023/08/10 07:50:14;;;;;;;2.30;2.10;;;;;;;;;;5018118;28;20034;-78
2023/08/10 07:52:39;;;;;;;2.10;1.65;;;;;;;;;;4999400;28;20064;-81
2023/08/10 07:55:05;;;;;;;1.83;1.73;;;;;;;;;;5022176;28;20072;-83
2023/08/10 07:57:30;;;;;;;1.60;1.50;;;;;;;;;;5018974;28;20033;-82
2023/08/10 07:59:56;;;;;;;2.45;1.95;;;;;;;;;;5017242;28;20037;-84
2023/08/10 08:02:22;;;;;;;1.83;1.73;;;;;;;;;;5015278;28;20037;-82
2023/08/10 08:04:47;;;;;;;3.13;1.70;;;;;;;;;;5013804;28;20625;-81
2023/08/10 08:07:12;;;;;;;4.07;2.00;;;;;;;;;;5013326;28;20059;-81
2023/08/10 08:09:37;;;;;;;1.83;1.73;;;;;;;;;;4997050;28;20041;-81
2023/08/10 08:12:03;;;;;;;2.17;1.92;;;;;;;;;;5013717;28;20028;-80
2023/08/10 08:14:28;;;;;;;2.60;1.95;;;;;;;;;;5014163;28;20045;-81
2023/08/10 08:16:53;;;;;;;2.03;1.88;;;;;;;;;;4999486;28;20088;-80
2023/08/10 08:19:19;;;;;;;2.67;1.98;;;;;;;;;;5010905;28;20049;-81
2023/08/10 08:21:48;;;;;;;2.10;1.73;;;;;;;;;;5011911;28;20122;-82
2023/08/10 08:24:13;;;;;;;1.80;1.70;;;;;;;;;;4995564;28;20098;-81
2023/08/10 08:26:40;;;;;;;2.20;2.00;;;;;;;;;;5014315;28;20034;-83
2023/08/10 08:29:06;;;;;;;1.95;1.80;;;;;;;;;;4992224;28;20058;-81
2023/08/10 08:31:32;;;;;;;2.40;1.90;;;;;;;;;;5013043;28;20072;-83
2023/08/10 08:33:58;;;;;;;1.90;1.80;;;;;;;;;;5013266;28;20049;-82
2023/08/10 08:36:23;;;;;;;1.90;1.80;;;;;;;;;;5013031;28;20034;-83
2023/08/10 08:38:48;;;;;;;2.10;1.90;;;;;;;;;;4997221;28;20057;-81
2023/08/10 08:41:17;;;;;;;1.90;1.80;;;;;;;;;;4993667;28;20076;-82
2023/08/10 08:43:45;;;;;;;2.25;2.05;;;;;;;;;;5013660;28;20045;-82
2023/08/10 08:46:11;;;;;;;2.25;1.73;;;;;;;;;;5014720;28;20129;-83
2023/08/10 08:48:37;;;;;;;2.10;1.90;;;;;;;;;;5010580;28;20033;-81
2023/08/10 08:51:04;;;;;;;2.47;1.60;;;;;;;;;;5011934;28;20037;-80
2023/08/10 08:53:33;;;;;;;1.75;1.65;;;;;;;;;;5015245;28;20069;-81
2023/08/10 08:55:58;;;;;;;1.75;1.65;;;;;;;;;;4993779;28;20030;-81
2023/08/10 08:58:23;;;;;;;2.20;2.00;;;;;;;;;;5011030;28;20038;-80
2023/08/10 09:00:52;;;;;;;1.80;1.70;;;;;;;;;;5010432;28;20980;-81
2023/08/10 09:03:22;;;;;;;2.05;1.90;;;;;;;;;;5013348;28;20022;-81
2023/08/10 09:05:47;;;;;;;2.42;1.67;;;;;;;;;;5014279;28;20053;-80
2023/08/10 09:08:17;;;;;;;1.80;1.70;;;;;;;;;;5015333;28;20029;-79
2023/08/10 09:10:46;;;;;;;1.70;1.50;;;;;;;;;;5013833;28;20118;-81
2023/08/10 09:13:16;;;;;;;3.28;1.70;;;;;;;;;;5013557;28;20026;-80
2023/08/10 09:15:41;;;;;;;1.95;1.70;;;;;;;;;;5013348;28;20596;-80
2023/08/10 09:18:07;;;;;;;2.03;1.77;;;;;;;;;;5011429;28;20049;-80
2023/08/10 09:20:32;;;;;;;2.17;1.60;;;;;;;;;;5011927;28;20033;-80
2023/08/10 09:22:59;;;;;;;3.63;1.73;;;;;;;;;;5013510;28;20030;-80
2023/08/10 09:25:25;;;;;;;3.60;1.70;;;;;;;;;;5011677;28;20040;-80
2023/08/10 09:27:52;;;;;;;1.38;1.33;;;;;;;;;;5014282;28;20037;-81
2023/08/10 09:30:19;;;;;;;1.90;1.80;;;;;;;;;;4996714;28;20116;-81
2023/08/10 09:32:45;;;;;;;1.77;1.67;;;;;;;;;;5016868;28;20006;-83
2023/08/10 09:35:18;;;;;;;2.33;1.95;;;;;;;;;;5016709;28;20124;-81
2023/08/10 09:37:46;;;;;;;2.08;1.70;;;;;;;;;;5013595;28;20044;-81
2023/08/10 09:40:15;;;;;;;1.80;1.70;;;;;;;;;;5014433;28;20557;-80
2023/08/10 09:42:41;;;;;;;1.73;1.63;;;;;;;;;;5015281;28;20513;-84
2023/08/10 09:45:08;;;;;;;2.40;1.58;;;;;;;;;;5013085;28;20029;-84
2023/08/10 09:47:39;;;;;;;2.15;1.95;;;;;;;;;;5013587;28;20022;-82
2023/08/10 09:50:09;;;;;;;1.80;1.70;;;;;;;;;;5010657;28;20062;-81
2023/08/10 09:52:36;;;;;;;2.88;2.00;;;;;;;;;;5014652;28;20034;-82
2023/08/10 09:55:03;;;;;;;2.60;2.22;;;;;;;;;;5015140;28;20061;-84
2023/08/10 09:57:29;;;;;;;3.47;1.92;;;;;;;;;;4997874;28;20030;-83
2023/08/10 09:59:55;;;;;;;12.35;1.60;;;;;;;;;;5014958;28;20029;-84
2023/08/10 10:02:21;;;;;;;3.15;1.70;;;;;;;;;;5013347;28;20063;-83
2023/08/10 10:04:46;;;;;;;2.42;1.90;;;;;;;;;;5014328;28;20085;-84
2023/08/10 10:07:12;;;;;;;6.75;1.90;;;;;;;;;;5015116;28;20034;-81
2023/08/10 10:09:40;;;;;;;3.60;1.60;;;;;;;;;;5015046;28;20579;-82
2023/08/10 10:12:12;;;;;;;1.92;1.75;;;;;;;;;;5015349;28;20034;-81
2023/08/10 10:14:42;;;;;;;3.22;1.88;;;;;;;;;;5015247;28;20018;-82
2023/08/10 10:17:18;;;;;;;1.80;1.70;;;;;;;;;;5013659;28;20037;-82
2023/08/10 10:19:44;;;;;;;1.75;1.65;;;;;;;;;;5029490;28;20459;-82
2023/08/10 10:22:13;;;;;;;1.75;1.65;;;;;;;;;;4996493;28;20026;-81
2023/08/10 10:24:41;;;;;;;2.97;1.70;;;;;;;;;;5014762;28;20033;-81
2023/08/10 10:27:11;;;;;;;3.10;1.80;;;;;;;;;;5012104;28;20026;-80
2023/08/10 10:29:58;;;;;;;1.90;1.80;;;;;;;;;;4996168;28;20093;-81
2023/08/10 10:32:23;;;;;;;1.83;1.73;;;;;;;;;;5014759;28;20030;-80
2023/08/10 10:34:51;;;;;;;2.45;1.77;;;;;;;;;;5016255;28;20030;-80
2023/08/10 10:37:30;;;;;;;2.13;1.92;;;;;;;;;;5017508;28;20065;-81
2023/08/10 10:40:18;;;;;;;2.97;1.92;;;;;;;;;;5017624;28;20038;-80
2023/08/10 10:43:02;;;;;;;3.13;1.95;;;;;;;;;;5015648;28;20034;-79
2023/08/10 10:45:28;;;;;;;4.97;1.95;;;;;;;;;;5017733;28;20037;-81
2023/08/10 10:47:55;;;;;;;2.10;1.90;;;;;;;;;;5016982;28;20030;-78
2023/08/10 10:50:23;;;;;;;1.88;1.77;;;;;;;;;;4996959;28;20062;-81
2023/08/10 10:52:53;;;;;;;1.63;1.52;;;;;;;;;;5018021;28;20037;-80
2023/08/10 10:55:19;;;;;;;2.17;1.90;;;;;;;;;;5017259;28;20048;-80
2023/08/10 10:58:02;;;;;;;1.95;1.80;;;;;;;;;;5015963;28;20049;-80
2023/08/10 11:00:29;;;;;;;2.65;2.10;;;;;;;;;;4998321;28;20057;-80
2023/08/10 11:02:55;;;;;;;2.20;1.92;;;;;;;;;;5017579;28;20442;-80
2023/08/10 11:05:20;;;;;;;2.15;1.95;;;;;;;;;;5015712;28;20076;-80
2023/08/10 11:07:52;;;;;;;2.22;2.00;;;;;;;;;;5017400;28;20037;-81
2023/08/10 11:10:19;;;;;;;2.00;1.90;;;;;;;;;;5016873;28;20063;-80
2023/08/10 11:12:48;;;;;;;1.90;1.80;;;;;;;;;;5017705;28;20461;-80
2023/08/10 11:15:14;;;;;;;1.70;1.60;;;;;;;;;;5014496;28;20091;-80
2023/08/10 11:17:41;;;;;;;2.55;1.80;;;;;;;;;;5017138;28;20444;-79
2023/08/10 11:20:14;;;;;;;1.83;1.73;;;;;;;;;;5016072;28;20132;-81
2023/08/10 11:22:44;;;;;;;3.30;1.83;;;;;;;;;;5016851;28;20382;-81
2023/08/10 11:25:14;;;;;;;6.70;1.65;;;;;;;;;;5017236;28;20479;-81
2023/08/10 11:27:42;;;;;;;2.00;1.80;;;;;;;;;;5012904;28;20065;-81
2023/08/10 11:30:09;;;;;;;1.77;1.67;;;;;;;;;;5014936;28;20038;-80
2023/08/10 11:32:41;;;;;;;2.95;1.90;;;;;;;;;;5017734;28;20518;-80
2023/08/10 11:35:09;;;;;;;2.22;2.03;;;;;;;;;;5015993;28;20553;-80
2023/08/10 11:37:36;;;;;;;2.20;2.00;;;;;;;;;;5008081;28;20037;-79
2023/08/10 11:41:05;;;;;;;2.33;2.13;;;;;;;;;;5016150;28;20116;-81
2023/08/10 11:43:32;;;;;;;1.92;1.80;;;;;;;;;;5002563;28;20701;-79
2023/08/10 11:45:57;;;;;;;1.77;1.67;;;;;;;;;;5013640;28;20076;-79
2023/08/10 11:48:26;;;;;;;1.90;1.80;;;;;;;;;;5016542;28;20046;-79
2023/08/10 11:50:59;;;;;;;2.03;1.60;;;;;;;;;;5000350;28;20153;-78
2023/08/10 11:53:25;;;;;;;1.85;1.75;;;;;;;;;;4996953;28;20037;-79
2023/08/10 11:55:51;;;;;;;1.67;1.55;;;;;;;;;;4993633;28;20057;-79
2023/08/10 11:58:18;;;;;;;4.28;2.00;;;;;;;;;;5011650;28;20048;-80
2023/08/10 12:00:49;;;;;;;2.55;2.20;;;;;;;;;;5012161;28;20087;-81
2023/08/10 12:03:23;;;;;;;2.38;2.17;;;;;;;;;;5014000;28;20026;-80
2023/08/10 12:05:51;;;;;;;2.03;1.92;;;;;;;;;;5014948;28;20017;-80
2023/08/10 12:08:28;;;;;;;2.00;1.80;;;;;;;;;;4998019;28;20040;-79
2023/08/10 12:11:08;;;;;;;6.30;2.20;;;;;;;;;;5014825;28;20152;-79
2023/08/10 12:13:47;;;;;;;2.47;1.90;;;;;;;;;;5018020;28;20524;-81
2023/08/10 12:16:13;;;;;;;2.15;1.95;;;;;;;;;;5015340;28;20045;-81
2023/08/10 12:18:39;;;;;;;2.10;1.90;;;;;;;;;;5032151;28;20093;-80
2023/08/10 12:21:04;;;;;;;2.55;2.00;;;;;;;;;;5018430;28;20084;-81
2023/08/10 12:23:29;;;;;;;2.22;1.90;;;;;;;;;;5019348;28;20030;-82
2023/08/10 12:25:55;;;;;;;3.80;1.95;;;;;;;;;;5001285;28;20374;-85
2023/08/10 12:28:20;;;;;;;2.78;1.80;;;;;;;;;;5017501;28;20045;-82
2023/08/10 12:30:52;;;;;;;3.10;2.30;;;;;;;;;;5018344;28;20448;-84
2023/08/10 12:33:19;;;;;;;2.17;2.08;;;;;;;;;;5000993;28;20026;-79
2023/08/10 12:35:45;;;;;;;2.08;1.90;;;;;;;;;;5020254;28;20029;-82
2023/08/10 12:38:10;;;;;;;2.03;1.90;;;;;;;;;;5000819;28;20030;-79
2023/08/10 12:40:36;;;;;;;1.90;1.80;;;;;;;;;;4999859;28;20096;-82
2023/08/10 12:43:02;;;;;;;2.85;1.90;;;;;;;;;;5018497;28;20034;-82
2023/08/10 12:45:28;;;;;;;2.90;1.85;;;;;;;;;;5018285;28;20077;-84
2023/08/10 12:47:56;;;;;;;3.53;1.90;;;;;;;;;;5018792;28;20038;-84
2023/08/10 12:50:23;;;;;;;3.50;1.80;;;;;;;;;;5017872;28;20041;-83
2023/08/10 12:52:48;;;;;;;2.10;1.90;;;;;;;;;;4999887;28;20419;-82
2023/08/10 12:55:17;;;;;;;1.80;1.70;;;;;;;;;;5017234;28;20066;-82
2023/08/10 12:57:44;;;;;;;2.05;1.73;;;;;;;;;;5032941;28;20042;-82
2023/08/10 13:00:13;;;;;;;3.13;2.35;;;;;;;;;;5000694;28;20033;-82
2023/08/10 13:02:40;;;;;;;2.30;1.90;;;;;;;;;;5018433;28;20017;-82
2023/08/10 13:05:05;;;;;;;2.20;1.98;;;;;;;;;;5018071;28;20034;-82
2023/08/10 13:07:32;;;;;;;2.17;1.90;;;;;;;;;;5000039;28;20057;-83
2023/08/10 13:09:57;;;;;;;3.88;2.30;;;;;;;;;;5017356;28;20092;-83
2023/08/10 13:12:22;;;;;;;2.08;1.92;;;;;;;;;;5017974;28;20054;-84
2023/08/10 13:14:48;;;;;;;2.28;2.08;;;;;;;;;;5017670;28;20026;-82
2023/08/10 13:17:13;;;;;;;3.08;2.03;;;;;;;;;;5017641;28;20068;-82
2023/08/10 13:19:38;;;;;;;4.05;2.10;;;;;;;;;;4999212;28;20060;-81
2023/08/10 13:22:07;;;;;;;2.60;2.17;;;;;;;;;;4999465;28;20320;-81
2023/08/10 13:24:33;;;;;;;2.17;2.00;;;;;;;;;;4999344;28;20491;-82
2023/08/10 13:27:00;;;;;;;2.38;2.17;;;;;;;;;;5017916;28;20516;-83
2023/08/10 13:29:25;;;;;;;2.95;2.30;;;;;;;;;;5018376;28;20038;-83
2023/08/10 13:31:51;;;;;;;3.38;2.13;;;;;;;;;;5016936;28;20113;-83
2023/08/10 13:34:17;;;;;;;4.68;2.40;;;;;;;;;;5017971;28;20573;-83
2023/08/10 13:36:42;;;;;;;3.70;2.30;;;;;;;;;;5017408;28;20105;-83
2023/08/10 13:39:09;;;;;;;2.38;2.17;;;;;;;;;;5016556;28;20021;-80
2023/08/10 13:41:35;;;;;;;3.00;2.60;;;;;;;;;;5015988;28;20484;-80
2023/08/10 13:44:01;;;;;;;3.38;2.40;;;;;;;;;;5017801;28;20084;-80
2023/08/10 13:46:26;;;;;;;2.28;2.10;;;;;;;;;;5017706;28;20026;-82
2023/08/10 13:48:52;;;;;;;4.07;2.10;;;;;;;;;;5017136;28;20018;-82
2023/08/10 13:51:18;;;;;;;2.92;2.65;;;;;;;;;;4995797;28;20112;-82
2023/08/10 13:53:44;;;;;;;2.22;2.13;;;;;;;;;;5013303;28;20024;-81
2023/08/10 13:56:12;;;;;;;2.40;2.20;;;;;;;;;;5013126;28;20030;-82
2023/08/10 13:58:40;;;;;;;2.30;2.10;;;;;;;;;;5015492;28;20049;-82
2023/08/10 14:01:06;;;;;;;2.55;2.10;;;;;;;;;;5014562;28;20126;-82
2023/08/10 14:03:33;;;;;;;2.42;1.83;;;;;;;;;;5013198;28;20054;-82
2023/08/10 14:05:58;;;;;;;1.98;1.88;;;;;;;;;;5013416;28;20134;-82
2023/08/10 14:08:24;;;;;;;3.42;1.98;;;;;;;;;;5012050;28;20052;-82
2023/08/10 14:10:49;;;;;;;2.45;2.00;;;;;;;;;;5012651;28;20034;-83
2023/08/10 14:13:14;;;;;;;2.22;1.80;;;;;;;;;;4995192;28;20038;-80
2023/08/10 14:15:41;;;;;;;3.33;2.10;;;;;;;;;;4994438;28;20224;-82
2023/08/10 14:18:06;;;;;;;2.40;2.20;;;;;;;;;;5013169;28;20053;-80
2023/08/10 14:20:42;;;;;;;1.83;1.73;;;;;;;;;;5013170;28;20025;-82
2023/08/10 14:23:07;;;;;;;2.03;1.90;;;;;;;;;;5010519;28;20038;-79
2023/08/10 14:25:33;;;;;;;2.53;2.33;;;;;;;;;;5011112;28;20519;-81
2023/08/10 14:27:58;;;;;;;3.83;2.33;;;;;;;;;;5013579;28;20045;-82
2023/08/10 14:30:24;;;;;;;2.40;2.17;;;;;;;;;;5011886;28;20026;-80
2023/08/10 14:32:50;;;;;;;3.50;2.40;;;;;;;;;;5012510;28;20032;-82
2023/08/10 14:35:16;;;;;;;2.97;2.30;;;;;;;;;;5011940;28;20041;-82
2023/08/10 14:37:44;;;;;;;2.50;2.28;;;;;;;;;;5010074;28;20030;-81
2023/08/10 14:40:10;;;;;;;3.38;2.30;;;;;;;;;;5012905;28;20045;-81
2023/08/10 14:42:36;;;;;;;3.10;2.58;;;;;;;;;;4995443;28;20077;-81